createdAt,value
2019-02-14T00:00:12.633Z,81.90
2019-02-14T00:01:12.545Z,84.00
2019-02-14T00:02:12.471Z,77.80
2019-02-14T00:03:12.381Z,73.40
2019-02-14T00:04:12.297Z,79.20
2019-02-14T00:05:16.466Z,68.60
2019-02-14T00:06:12.120Z,78.00
2019-02-14T00:07:12.044Z,69.90
2019-02-14T00:08:11.971Z,75.30
2019-02-14T00:09:11.869Z,70.00
2019-02-14T00:10:11.784Z,75.70
2019-02-14T00:11:11.709Z,77.10
2019-02-14T00:12:11.620Z,73.30
2019-02-14T00:13:11.532Z,68.70
2019-02-14T00:14:11.446Z,72.80
2019-02-14T00:15:11.371Z,75.30
2019-02-14T00:16:11.283Z,79.00
2019-02-14T00:17:11.198Z,70.60
2019-02-14T00:18:11.109Z,71.70
2019-02-14T00:19:11.034Z,73.20
2019-02-14T00:20:10.948Z,71.40
2019-02-14T00:21:10.859Z,83.90
2019-02-14T00:22:11.083Z,71.90
2019-02-14T00:23:10.697Z,70.80
2019-02-14T00:24:10.609Z,75.50
2019-02-14T00:25:10.521Z,78.10
2019-02-14T00:26:10.449Z,73.10
2019-02-14T00:27:10.359Z,78.10
2019-02-14T00:28:10.272Z,75.60
2019-02-14T00:29:10.197Z,72.40
2019-02-14T00:30:10.109Z,77.50
2019-02-14T00:31:10.022Z,84.60
2019-02-14T00:32:09.934Z,78.40
2019-02-14T00:33:09.859Z,78.70
2019-02-14T00:34:09.774Z,80.90
2019-02-14T00:35:09.698Z,73.80
2019-02-14T00:36:09.598Z,71.60
2019-02-14T00:37:09.810Z,74.00
2019-02-14T00:38:09.435Z,67.90
2019-02-14T00:39:09.348Z,72.90
2019-02-14T00:40:09.261Z,72.70
2019-02-14T00:41:09.185Z,76.90
2019-02-14T00:42:09.099Z,74.20
2019-02-14T00:43:09.010Z,68.20
2019-02-14T00:44:08.925Z,65.40
2019-02-14T00:45:08.849Z,70.50
2019-02-14T00:46:08.762Z,66.90
2019-02-14T00:47:08.675Z,71.50
2019-02-14T00:48:08.586Z,73.40
2019-02-14T00:49:08.522Z,69.00
2019-02-14T00:50:08.426Z,65.30
2019-02-14T00:51:08.349Z,65.10
2019-02-14T00:52:08.250Z,65.70
2019-02-14T00:53:08.177Z,63.70
2019-02-14T00:54:08.086Z,69.40
2019-02-14T00:55:07.999Z,63.40
2019-02-14T00:56:07.914Z,64.10
2019-02-14T00:57:07.839Z,65.70
2019-02-14T00:58:07.751Z,67.60
2019-02-14T00:59:07.662Z,61.20
2019-02-14T01:00:07.589Z,58.50
2019-02-14T01:01:07.501Z,64.60
2019-02-14T01:02:07.412Z,57.90
2019-02-14T01:03:07.337Z,57.40
2019-02-14T01:04:07.251Z,60.20
2019-02-14T01:05:07.175Z,58.70
2019-02-14T01:06:07.076Z,55.80
2019-02-14T01:07:06.989Z,56.80
2019-02-14T01:08:06.914Z,57.00
2019-02-14T01:09:06.842Z,54.50
2019-02-14T01:10:06.769Z,54.80
2019-02-14T01:11:06.663Z,57.50
2019-02-14T01:12:06.578Z,65.10
2019-02-14T01:13:06.488Z,52.70
2019-02-14T01:14:06.404Z,55.20
2019-02-14T01:15:06.327Z,48.20
2019-02-14T01:16:06.239Z,51.20
2019-02-14T01:17:06.152Z,55.30
2019-02-14T01:18:06.065Z,57.50
2019-02-14T01:19:05.989Z,51.30
2019-02-14T01:20:05.904Z,50.80
2019-02-14T01:21:05.827Z,50.70
2019-02-14T01:22:05.728Z,54.70
2019-02-14T01:23:05.659Z,53.30
2019-02-14T01:24:05.574Z,53.10
2019-02-14T01:25:05.478Z,49.40
2019-02-14T01:26:05.392Z,48.70
2019-02-14T01:27:05.316Z,52.60
2019-02-14T01:28:05.228Z,49.70
2019-02-14T01:29:05.140Z,50.60
2019-02-14T01:30:05.069Z,51.30
2019-02-14T01:31:04.981Z,56.90
2019-02-14T01:32:04.891Z,52.40
2019-02-14T01:33:04.804Z,51.40
2019-02-14T01:34:04.729Z,61.10
2019-02-14T01:35:04.646Z,58.10
2019-02-14T01:36:04.554Z,54.90
2019-02-14T01:37:04.468Z,59.80
2019-02-14T01:38:04.391Z,55.00
2019-02-14T01:39:04.304Z,55.00
2019-02-14T01:40:04.216Z,57.80
2019-02-14T01:41:04.160Z,53.20
2019-02-14T01:42:04.055Z,58.20
2019-02-14T01:43:03.966Z,54.80
2019-02-14T01:44:03.880Z,57.20
2019-02-14T01:45:03.808Z,53.90
2019-02-14T01:46:03.717Z,51.40
2019-02-14T01:47:03.631Z,55.50
2019-02-14T01:48:03.544Z,50.60
2019-02-14T01:49:03.467Z,56.30
2019-02-14T01:50:03.383Z,52.20
2019-02-14T01:51:03.293Z,53.30
2019-02-14T01:52:03.218Z,56.30
2019-02-14T01:53:03.136Z,52.80
2019-02-14T01:54:03.043Z,51.30
2019-02-14T01:55:02.956Z,52.40
2019-02-14T01:56:02.883Z,46.90
2019-02-14T01:57:02.806Z,51.40
2019-02-14T01:58:02.706Z,46.40
2019-02-14T01:59:02.620Z,57.90
2019-02-14T02:00:02.544Z,45.80
2019-02-14T02:01:02.458Z,49.90
2019-02-14T02:02:02.369Z,49.40
2019-02-14T02:03:02.296Z,50.70
2019-02-14T02:04:02.207Z,53.10
2019-02-14T02:05:02.119Z,49.80
2019-02-14T02:06:02.035Z,50.50
2019-02-14T02:07:01.958Z,46.70
2019-02-14T02:08:01.869Z,52.60
2019-02-14T02:09:01.786Z,47.60
2019-02-14T02:10:01.697Z,47.60
2019-02-14T02:11:01.619Z,45.60
2019-02-14T02:12:01.533Z,44.30
2019-02-14T02:13:01.445Z,43.10
2019-02-14T02:14:01.371Z,44.40
2019-02-14T02:15:01.295Z,43.50
2019-02-14T02:16:01.196Z,42.20
2019-02-14T02:17:01.114Z,43.00
2019-02-14T02:18:01.039Z,41.60
2019-02-14T02:19:00.945Z,39.90
2019-02-14T02:20:00.870Z,41.90
2019-02-14T02:21:00.774Z,41.50
2019-02-14T02:22:00.946Z,38.30
2019-02-14T02:23:00.610Z,47.00
2019-02-14T02:24:00.536Z,46.60
2019-02-14T02:25:00.435Z,41.80
2019-02-14T02:26:00.359Z,45.70
2019-02-14T02:27:00.271Z,48.80
2019-02-14T02:28:00.199Z,44.00
2019-02-14T02:29:00.102Z,42.80
2019-02-14T02:30:00.035Z,47.10
2019-02-14T02:30:59.937Z,44.60
2019-02-14T02:31:59.912Z,42.00
2019-02-14T02:32:59.786Z,42.40
2019-02-14T02:33:59.685Z,42.70
2019-02-14T02:34:59.599Z,44.60
2019-02-14T02:36:00.665Z,41.30
2019-02-14T02:36:59.438Z,43.80
2019-02-14T02:37:59.347Z,42.20
2019-02-14T02:38:59.260Z,43.10
2019-02-14T02:39:59.187Z,42.30
2019-02-14T02:40:59.108Z,40.20
2019-02-14T02:41:59.317Z,43.00
2019-02-14T02:42:58.923Z,44.20
2019-02-14T02:43:58.851Z,48.00
2019-02-14T02:44:58.762Z,40.60
2019-02-14T02:45:58.687Z,41.20
2019-02-14T02:46:58.586Z,42.50
2019-02-14T02:47:58.515Z,39.10
2019-02-14T02:48:58.427Z,38.20
2019-02-14T02:49:58.337Z,38.00
2019-02-14T02:50:58.252Z,35.70
2019-02-14T02:51:58.178Z,36.60
2019-02-14T02:52:58.088Z,35.90
2019-02-14T02:53:58.002Z,35.20
2019-02-14T02:54:57.926Z,37.40
2019-02-14T02:55:57.839Z,37.50
2019-02-14T02:56:57.752Z,33.30
2019-02-14T02:57:57.675Z,35.70
2019-02-14T02:58:57.589Z,36.70
2019-02-14T02:59:57.515Z,33.10
2019-02-14T03:00:57.414Z,35.90
2019-02-14T03:01:57.325Z,35.50
2019-02-14T03:02:57.250Z,35.10
2019-02-14T03:03:57.165Z,31.00
2019-02-14T03:04:57.076Z,31.00
2019-02-14T03:05:57.014Z,33.10
2019-02-14T03:06:56.914Z,33.10
2019-02-14T03:07:56.830Z,33.80
2019-02-14T03:08:56.740Z,30.00
2019-02-14T03:09:56.665Z,29.80
2019-02-14T03:10:56.576Z,29.40
2019-02-14T03:11:56.490Z,31.30
2019-02-14T03:12:56.403Z,28.30
2019-02-14T03:13:56.327Z,33.30
2019-02-14T03:14:56.241Z,34.10
2019-02-14T03:15:56.152Z,32.20
2019-02-14T03:16:56.079Z,29.50
2019-02-14T03:17:55.990Z,30.60
2019-02-14T03:18:55.915Z,30.90
2019-02-14T03:19:55.815Z,32.70
2019-02-14T03:20:55.741Z,29.00
2019-02-14T03:21:55.652Z,26.40
2019-02-14T03:22:55.577Z,28.20
2019-02-14T03:23:55.487Z,30.00
2019-02-14T03:24:55.421Z,28.20
2019-02-14T03:25:55.316Z,29.00
2019-02-14T03:26:55.242Z,27.60
2019-02-14T03:27:55.153Z,30.60
2019-02-14T03:28:55.067Z,31.50
2019-02-14T03:29:54.978Z,28.10
2019-02-14T03:30:54.893Z,30.20
2019-02-14T03:31:54.817Z,28.90
2019-02-14T03:32:54.731Z,28.70
2019-02-14T03:33:54.644Z,30.20
2019-02-14T03:34:54.567Z,31.80
2019-02-14T03:35:54.479Z,31.60
2019-02-14T03:36:54.392Z,32.70
2019-02-14T03:37:54.305Z,30.40
2019-02-14T03:38:54.230Z,28.20
2019-02-14T03:39:54.142Z,35.20
2019-02-14T03:40:54.056Z,27.80
2019-02-14T03:41:53.979Z,31.50
2019-02-14T03:42:54.128Z,26.80
2019-02-14T03:43:53.805Z,29.10
2019-02-14T03:44:53.717Z,30.70
2019-02-14T03:45:53.643Z,28.80
2019-02-14T03:46:53.568Z,28.80
2019-02-14T03:47:53.469Z,28.80
2019-02-14T03:48:53.381Z,28.20
2019-02-14T03:49:53.305Z,29.40
2019-02-14T03:50:53.219Z,29.00
2019-02-14T03:51:53.130Z,28.20
2019-02-14T03:52:53.061Z,25.40
2019-02-14T03:53:52.969Z,29.60
2019-02-14T03:54:52.881Z,28.60
2019-02-14T03:55:52.795Z,26.80
2019-02-14T03:56:52.720Z,29.00
2019-02-14T03:57:52.632Z,28.60
2019-02-14T03:58:52.545Z,27.70
2019-02-14T03:59:52.458Z,27.20
2019-02-14T04:00:52.383Z,29.60
2019-02-14T04:01:52.299Z,27.70
2019-02-14T04:02:52.207Z,27.00
2019-02-14T04:03:52.132Z,27.00
2019-02-14T04:04:52.045Z,27.30
2019-02-14T04:05:51.961Z,26.40
2019-02-14T04:06:51.872Z,25.60
2019-02-14T04:07:51.795Z,30.40
2019-02-14T04:08:51.712Z,28.60
2019-02-14T04:09:51.621Z,30.30
2019-02-14T04:10:51.534Z,29.50
2019-02-14T04:11:51.459Z,26.20
2019-02-14T04:12:51.371Z,29.00
2019-02-14T04:13:51.305Z,28.60
2019-02-14T04:14:51.209Z,27.50
2019-02-14T04:15:51.122Z,27.00
2019-02-14T04:16:51.033Z,30.30
2019-02-14T04:17:50.946Z,26.00
2019-02-14T04:18:50.872Z,30.60
2019-02-14T04:19:50.796Z,27.60
2019-02-14T04:20:50.697Z,26.60
2019-02-14T04:21:50.859Z,28.20
2019-02-14T04:22:50.539Z,28.50
2019-02-14T04:23:50.447Z,26.60
2019-02-14T04:24:50.359Z,29.20
2019-02-14T04:25:50.275Z,27.50
2019-02-14T04:26:50.198Z,25.70
2019-02-14T04:27:50.110Z,30.70
2019-02-14T04:28:50.025Z,27.70
2019-02-14T04:29:49.948Z,25.20
2019-02-14T04:30:49.864Z,27.50
2019-02-14T04:31:49.778Z,29.60
2019-02-14T04:32:49.685Z,26.80
2019-02-14T04:33:49.611Z,25.70
2019-02-14T04:34:49.523Z,25.50
2019-02-14T04:35:49.449Z,22.70
2019-02-14T04:36:49.348Z,22.10
2019-02-14T04:37:49.277Z,24.40
2019-02-14T04:38:49.191Z,25.80
2019-02-14T04:39:49.100Z,23.90
2019-02-14T04:40:49.024Z,21.80
2019-02-14T04:41:48.936Z,24.40
2019-02-14T04:42:48.850Z,21.70
2019-02-14T04:43:48.761Z,25.90
2019-02-14T04:44:48.687Z,23.50
2019-02-14T04:45:48.600Z,23.40
2019-02-14T04:46:48.514Z,24.20
2019-02-14T04:47:48.424Z,23.20
2019-02-14T04:48:48.350Z,23.60
2019-02-14T04:49:48.262Z,23.20
2019-02-14T04:50:48.177Z,22.90
2019-02-14T04:51:48.088Z,20.80
2019-02-14T04:52:48.014Z,24.30
2019-02-14T04:53:47.927Z,23.60
2019-02-14T04:54:47.842Z,24.50
2019-02-14T04:55:47.775Z,22.80
2019-02-14T04:56:47.926Z,24.80
2019-02-14T04:57:47.589Z,23.90
2019-02-14T04:58:47.502Z,23.80
2019-02-14T04:59:47.426Z,25.70
2019-02-14T05:00:47.340Z,22.80
2019-02-14T05:01:47.252Z,22.20
2019-02-14T05:02:47.176Z,25.50
2019-02-14T05:03:47.088Z,21.90
2019-02-14T05:04:47.003Z,25.80
2019-02-14T05:05:46.914Z,21.00
2019-02-14T05:06:46.827Z,25.00
2019-02-14T05:07:46.752Z,24.30
2019-02-14T05:08:46.663Z,23.40
2019-02-14T05:09:46.577Z,23.60
2019-02-14T05:10:46.491Z,21.80
2019-02-14T05:11:46.414Z,22.00
2019-02-14T05:12:46.330Z,23.30
2019-02-14T05:13:46.239Z,26.20
2019-02-14T05:14:46.164Z,25.00
2019-02-14T05:15:46.077Z,24.90
2019-02-14T05:16:45.990Z,22.50
2019-02-14T05:17:45.904Z,25.20
2019-02-14T05:18:45.828Z,23.60
2019-02-14T05:19:45.742Z,24.40
2019-02-14T05:20:45.653Z,23.50
2019-02-14T05:21:45.818Z,26.70
2019-02-14T05:22:45.491Z,23.70
2019-02-14T05:23:45.404Z,22.40
2019-02-14T05:24:45.316Z,23.50
2019-02-14T05:25:45.242Z,23.00
2019-02-14T05:26:45.154Z,23.80
2019-02-14T05:27:45.075Z,26.70
2019-02-14T05:28:44.979Z,24.00
2019-02-14T05:29:44.906Z,26.20
2019-02-14T05:30:44.829Z,22.30
2019-02-14T05:31:44.731Z,24.40
2019-02-14T05:32:44.645Z,21.60
2019-02-14T05:33:44.568Z,22.10
2019-02-14T05:34:44.483Z,22.10
2019-02-14T05:35:44.395Z,26.70
2019-02-14T05:36:52.386Z,25.10
2019-02-14T05:37:44.232Z,22.50
2019-02-14T05:38:44.142Z,23.10
2019-02-14T05:39:44.057Z,23.80
2019-02-14T05:40:43.981Z,26.00
2019-02-14T05:41:43.893Z,23.80
2019-02-14T05:42:43.807Z,27.20
2019-02-14T05:43:43.731Z,24.50
2019-02-14T05:44:43.644Z,25.70
2019-02-14T05:45:43.557Z,22.40
2019-02-14T05:46:43.469Z,24.50
2019-02-14T05:47:43.393Z,27.30
2019-02-14T05:48:43.307Z,25.40
2019-02-14T05:49:43.219Z,24.00
2019-02-14T05:50:43.156Z,23.20
2019-02-14T05:51:43.057Z,28.30
2019-02-14T05:52:42.969Z,22.80
2019-02-14T05:53:42.882Z,24.20
2019-02-14T05:54:42.807Z,24.20
2019-02-14T05:55:42.719Z,25.20
2019-02-14T05:56:42.632Z,25.00
2019-02-14T05:57:42.558Z,26.20
2019-02-14T05:58:42.470Z,26.90
2019-02-14T05:59:42.385Z,26.70
2019-02-14T06:00:42.294Z,22.60
2019-02-14T06:01:42.222Z,27.80
2019-02-14T06:02:42.136Z,26.70
2019-02-14T06:03:42.059Z,32.90
2019-02-14T06:04:41.959Z,25.70
2019-02-14T06:05:41.884Z,27.30
2019-02-14T06:06:41.795Z,25.70
2019-02-14T06:07:41.709Z,25.20
2019-02-14T06:08:41.622Z,26.10
2019-02-14T06:09:41.546Z,25.70
2019-02-14T06:10:41.459Z,26.00
2019-02-14T06:11:41.372Z,25.00
2019-02-14T06:12:41.313Z,25.00
2019-02-14T06:13:41.213Z,26.80
2019-02-14T06:14:41.122Z,24.90
2019-02-14T06:15:41.046Z,24.80
2019-02-14T06:16:40.961Z,22.30
2019-02-14T06:17:40.874Z,25.60
2019-02-14T06:18:40.785Z,25.60
2019-02-14T06:19:40.713Z,21.10
2019-02-14T06:20:40.623Z,23.50
2019-02-14T06:21:40.785Z,24.50
2019-02-14T06:22:40.504Z,28.10
2019-02-14T06:23:40.372Z,26.70
2019-02-14T06:24:40.285Z,24.00
2019-02-14T06:25:40.198Z,25.50
2019-02-14T06:26:40.124Z,23.70
2019-02-14T06:27:40.046Z,23.70
2019-02-14T06:28:39.949Z,23.10
2019-02-14T06:29:39.862Z,22.80
2019-02-14T06:30:39.786Z,23.00
2019-02-14T06:31:39.699Z,23.10
2019-02-14T06:32:39.612Z,26.10
2019-02-14T06:33:39.526Z,23.90
2019-02-14T06:34:39.448Z,24.80
2019-02-14T06:35:39.362Z,23.50
2019-02-14T06:36:39.274Z,22.40
2019-02-14T06:37:39.199Z,22.90
2019-02-14T06:38:39.112Z,28.80
2019-02-14T06:39:39.037Z,26.30
2019-02-14T06:40:38.941Z,25.90
2019-02-14T06:41:39.112Z,27.00
2019-02-14T06:42:38.774Z,24.50
2019-02-14T06:43:38.699Z,22.80
2019-02-14T06:44:38.614Z,22.60
2019-02-14T06:45:38.526Z,24.90
2019-02-14T06:46:38.438Z,24.10
2019-02-14T06:47:38.351Z,24.90
2019-02-14T06:48:38.276Z,22.90
2019-02-14T06:49:38.189Z,25.80
2019-02-14T06:50:38.101Z,21.90
2019-02-14T06:51:38.025Z,23.70
2019-02-14T06:52:37.942Z,21.70
2019-02-14T06:53:37.850Z,25.40
2019-02-14T06:54:37.764Z,24.60
2019-02-14T06:55:37.690Z,22.20
2019-02-14T06:56:37.600Z,24.90
2019-02-14T06:57:37.519Z,24.20
2019-02-14T06:58:37.441Z,23.60
2019-02-14T06:59:37.351Z,22.80
2019-02-14T07:00:37.264Z,23.60
2019-02-14T07:01:37.178Z,23.00
2019-02-14T07:02:37.101Z,22.90
2019-02-14T07:03:37.016Z,22.90
2019-02-14T07:04:36.928Z,21.50
2019-02-14T07:05:36.852Z,23.40
2019-02-14T07:06:36.765Z,23.30
2019-02-14T07:07:36.677Z,22.80
2019-02-14T07:08:36.590Z,25.30
2019-02-14T07:09:36.516Z,19.70
2019-02-14T07:10:36.427Z,21.30
2019-02-14T07:11:36.353Z,22.00
2019-02-14T07:12:36.265Z,19.40
2019-02-14T07:13:36.178Z,23.60
2019-02-14T07:14:36.091Z,21.40
2019-02-14T07:15:36.004Z,23.20
2019-02-14T07:16:35.928Z,20.70
2019-02-14T07:17:35.847Z,24.40
2019-02-14T07:18:35.753Z,22.40
2019-02-14T07:19:35.681Z,21.20
2019-02-14T07:20:35.591Z,23.80
2019-02-14T07:21:35.504Z,21.40
2019-02-14T07:22:35.430Z,21.90
2019-02-14T07:23:35.342Z,21.10
2019-02-14T07:24:35.254Z,21.70
2019-02-14T07:25:35.167Z,21.30
2019-02-14T07:26:35.094Z,20.70
2019-02-14T07:27:35.006Z,21.40
2019-02-14T07:28:34.919Z,22.00
2019-02-14T07:29:34.844Z,22.90
2019-02-14T07:30:34.756Z,22.20
2019-02-14T07:31:34.679Z,22.70
2019-02-14T07:32:34.582Z,23.00
2019-02-14T07:33:34.518Z,24.20
2019-02-14T07:34:34.419Z,22.30
2019-02-14T07:35:34.331Z,21.90
2019-02-14T07:36:34.255Z,22.70
2019-02-14T07:37:34.170Z,21.60
2019-02-14T07:38:34.080Z,21.50
2019-02-14T07:39:34.018Z,22.10
2019-02-14T07:40:33.918Z,20.90
2019-02-14T07:41:33.830Z,21.50
2019-02-14T07:42:33.758Z,22.80
2019-02-14T07:43:33.669Z,21.00
2019-02-14T07:44:33.581Z,21.30
2019-02-14T07:45:33.495Z,21.10
2019-02-14T07:46:33.422Z,21.00
2019-02-14T07:47:33.332Z,21.10
2019-02-14T07:48:33.245Z,20.70
2019-02-14T07:49:33.170Z,23.60
2019-02-14T07:50:33.082Z,20.40
2019-02-14T07:51:32.996Z,21.00
2019-02-14T07:52:32.920Z,25.20
2019-02-14T07:53:32.832Z,21.80
2019-02-14T07:54:32.746Z,20.00
2019-02-14T07:55:32.671Z,24.00
2019-02-14T07:56:32.582Z,21.90
2019-02-14T07:57:32.499Z,24.30
2019-02-14T07:58:32.409Z,24.90
2019-02-14T07:59:32.334Z,25.50
2019-02-14T08:00:32.246Z,22.80
2019-02-14T08:01:32.171Z,22.60
2019-02-14T08:02:32.083Z,25.40
2019-02-14T08:03:31.999Z,21.30
2019-02-14T08:04:31.908Z,22.10
2019-02-14T08:05:31.837Z,25.30
2019-02-14T08:06:31.748Z,22.40
2019-02-14T08:07:36.028Z,22.90
2019-02-14T08:08:31.584Z,20.20
2019-02-14T08:09:31.498Z,23.30
2019-02-14T08:10:31.409Z,21.70
2019-02-14T08:11:31.336Z,22.30
2019-02-14T08:12:31.247Z,20.20
2019-02-14T08:13:31.160Z,21.90
2019-02-14T08:14:31.073Z,24.00
2019-02-14T08:15:30.999Z,24.30
2019-02-14T08:16:30.909Z,23.70
2019-02-14T08:17:30.827Z,20.90
2019-02-14T08:18:30.748Z,24.20
2019-02-14T08:19:30.664Z,25.60
2019-02-14T08:20:30.573Z,22.80
2019-02-14T08:21:30.498Z,24.70
2019-02-14T08:22:30.412Z,22.70
2019-02-14T08:23:30.327Z,23.10
2019-02-14T08:24:30.248Z,23.50
2019-02-14T08:25:30.163Z,23.40
2019-02-14T08:26:30.074Z,21.60
2019-02-14T08:27:29.999Z,21.80
2019-02-14T08:28:29.910Z,22.70
2019-02-14T08:29:29.824Z,24.50
2019-02-14T08:30:29.749Z,22.60
2019-02-14T08:31:29.662Z,23.30
2019-02-14T08:32:29.575Z,26.20
2019-02-14T08:33:29.503Z,23.70
2019-02-14T08:34:29.411Z,22.80
2019-02-14T08:35:29.326Z,21.20
2019-02-14T08:36:29.249Z,22.30
2019-02-14T08:37:29.164Z,24.40
2019-02-14T08:38:29.079Z,22.00
2019-02-14T08:39:29.001Z,21.20
2019-02-14T08:40:28.912Z,21.20
2019-02-14T08:41:28.825Z,26.20
2019-02-14T08:42:28.751Z,21.50
2019-02-14T08:43:28.676Z,24.20
2019-02-14T08:44:28.576Z,25.30
2019-02-14T08:45:28.501Z,25.20
2019-02-14T08:46:28.413Z,20.70
2019-02-14T08:47:28.326Z,23.30
2019-02-14T08:48:28.251Z,20.50
2019-02-14T08:49:28.164Z,23.10
2019-02-14T08:50:28.076Z,19.50
2019-02-14T08:51:28.002Z,21.70
2019-02-14T08:52:27.913Z,20.00
2019-02-14T08:53:27.829Z,23.80
2019-02-14T08:54:27.756Z,24.20
2019-02-14T08:55:27.667Z,21.40
2019-02-14T08:56:27.588Z,22.00
2019-02-14T08:57:27.503Z,23.30
2019-02-14T08:58:27.414Z,19.30
2019-02-14T08:59:27.339Z,22.90
2019-02-14T09:00:27.254Z,22.60
2019-02-14T09:01:27.165Z,24.90
2019-02-14T09:02:27.093Z,21.90
2019-02-14T09:03:27.003Z,21.60
2019-02-14T09:04:26.915Z,20.50
2019-02-14T09:05:26.839Z,21.40
2019-02-14T09:06:26.757Z,20.20
2019-02-14T09:07:26.681Z,23.30
2019-02-14T09:08:26.606Z,22.80
2019-02-14T09:09:26.506Z,23.10
2019-02-14T09:10:26.452Z,19.20
2019-02-14T09:11:26.340Z,23.20
2019-02-14T09:12:26.266Z,20.10
2019-02-14T09:13:26.182Z,22.80
2019-02-14T09:14:26.091Z,22.00
2019-02-14T09:15:26.015Z,20.30
2019-02-14T09:16:25.930Z,22.30
2019-02-14T09:17:25.842Z,23.10
2019-02-14T09:18:25.766Z,20.80
2019-02-14T09:19:25.680Z,21.20
2019-02-14T09:20:25.592Z,18.90
2019-02-14T09:21:25.516Z,20.50
2019-02-14T09:22:25.429Z,23.30
2019-02-14T09:23:25.355Z,24.00
2019-02-14T09:24:25.268Z,25.00
2019-02-14T09:25:25.204Z,22.30
2019-02-14T09:26:25.105Z,24.20
2019-02-14T09:27:25.017Z,23.30
2019-02-14T09:28:24.942Z,23.90
2019-02-14T09:29:24.856Z,20.50
2019-02-14T09:30:24.768Z,21.20
2019-02-14T09:31:24.696Z,21.50
2019-02-14T09:32:24.606Z,22.00
2019-02-14T09:33:24.532Z,18.80
2019-02-14T09:34:24.445Z,21.60
2019-02-14T09:35:24.368Z,20.60
2019-02-14T09:36:24.281Z,21.50
2019-02-14T09:37:24.206Z,19.70
2019-02-14T09:38:24.118Z,22.20
2019-02-14T09:39:24.034Z,22.90
2019-02-14T09:40:23.956Z,20.40
2019-02-14T09:41:23.868Z,22.30
2019-02-14T09:42:23.785Z,19.90
2019-02-14T09:43:29.674Z,20.50
2019-02-14T09:44:23.624Z,21.70
2019-02-14T09:45:23.548Z,21.10
2019-02-14T09:46:23.474Z,20.50
2019-02-14T09:47:23.370Z,23.60
2019-02-14T09:48:23.294Z,20.50
2019-02-14T09:49:23.207Z,19.10
2019-02-14T09:50:23.134Z,21.00
2019-02-14T09:51:23.045Z,20.30
2019-02-14T09:52:22.983Z,24.00
2019-02-14T09:53:22.894Z,20.60
2019-02-14T09:54:22.815Z,19.80
2019-02-14T09:55:22.720Z,20.20
2019-02-14T09:56:22.653Z,20.50
2019-02-14T09:57:22.560Z,19.40
2019-02-14T09:58:22.817Z,21.60
2019-02-14T09:59:22.415Z,24.10
2019-02-14T10:00:22.317Z,17.20
2019-02-14T10:01:22.222Z,19.20
2019-02-14T10:02:22.154Z,17.40
2019-02-14T10:03:22.063Z,21.20
2019-02-14T10:04:21.987Z,23.80
2019-02-14T10:05:21.941Z,22.20
2019-02-14T10:06:21.821Z,20.90
2019-02-14T10:07:21.735Z,18.30
2019-02-14T10:08:21.672Z,20.80
2019-02-14T10:09:21.584Z,20.00
2019-02-14T10:10:21.497Z,18.30
2019-02-14T10:11:21.423Z,18.10
2019-02-14T10:12:21.333Z,19.60
2019-02-14T10:13:21.247Z,19.00
2019-02-14T10:14:21.160Z,20.40
2019-02-14T10:15:21.136Z,17.70
2019-02-14T10:16:20.999Z,18.40
2019-02-14T10:17:22.185Z,17.60
2019-02-14T10:18:20.849Z,17.20
2019-02-14T10:19:20.761Z,18.80
2019-02-14T10:20:20.691Z,17.80
2019-02-14T10:21:20.598Z,17.20
2019-02-14T10:22:20.511Z,15.50
2019-02-14T10:23:20.431Z,19.40
2019-02-14T10:24:20.351Z,19.00
2019-02-14T10:25:20.262Z,17.90
2019-02-14T10:26:20.186Z,20.30
2019-02-14T10:27:20.098Z,17.00
2019-02-14T10:28:20.033Z,16.80
2019-02-14T10:29:19.936Z,16.70
2019-02-14T10:30:19.862Z,15.80
2019-02-14T10:31:19.775Z,16.10
2019-02-14T10:32:19.688Z,17.10
2019-02-14T10:33:19.612Z,15.70
2019-02-14T10:34:19.528Z,18.40
2019-02-14T10:35:19.449Z,19.40
2019-02-14T10:36:19.371Z,18.80
2019-02-14T10:37:19.287Z,18.20
2019-02-14T10:38:22.392Z,16.50
2019-02-14T10:39:19.124Z,16.00
2019-02-14T10:40:19.042Z,17.20
2019-02-14T10:41:18.963Z,16.90
2019-02-14T10:42:18.876Z,17.30
2019-02-14T10:43:18.800Z,17.70
2019-02-14T10:44:18.714Z,16.60
2019-02-14T10:45:18.686Z,18.70
2019-02-14T10:46:18.551Z,17.80
2019-02-14T10:47:18.464Z,19.00
2019-02-14T10:48:18.389Z,18.00
2019-02-14T10:49:18.303Z,18.40
2019-02-14T10:50:18.225Z,19.30
2019-02-14T10:51:18.140Z,18.10
2019-02-14T10:52:18.065Z,18.70
2019-02-14T10:53:17.976Z,18.20
2019-02-14T10:54:17.902Z,20.00
2019-02-14T10:55:17.819Z,20.20
2019-02-14T10:56:17.740Z,16.90
2019-02-14T10:57:17.652Z,18.40
2019-02-14T10:58:17.577Z,17.30
2019-02-14T10:59:17.490Z,18.10
2019-02-14T11:00:17.416Z,17.20
2019-02-14T11:01:17.328Z,18.10
2019-02-14T11:02:17.253Z,20.00
2019-02-14T11:03:17.165Z,22.00
2019-02-14T11:04:17.091Z,18.20
2019-02-14T11:05:17.003Z,16.70
2019-02-14T11:06:16.927Z,19.40
2019-02-14T11:07:16.856Z,19.10
2019-02-14T11:08:16.767Z,17.70
2019-02-14T11:09:16.691Z,18.00
2019-02-14T11:10:16.606Z,16.70
2019-02-14T11:11:16.531Z,16.60
2019-02-14T11:12:16.442Z,16.50
2019-02-14T11:13:16.368Z,16.40
2019-02-14T11:14:16.280Z,15.70
2019-02-14T11:15:16.204Z,17.20
2019-02-14T11:16:16.129Z,18.10
2019-02-14T11:17:16.043Z,17.50
2019-02-14T11:18:15.967Z,17.10
2019-02-14T11:19:15.892Z,16.50
2019-02-14T11:20:17.755Z,17.40
2019-02-14T11:21:15.730Z,17.20
2019-02-14T11:22:15.644Z,15.40
2019-02-14T11:23:15.567Z,16.70
2019-02-14T11:24:15.481Z,17.40
2019-02-14T11:25:15.405Z,17.10
2019-02-14T11:26:15.330Z,17.10
2019-02-14T11:27:15.243Z,18.70
2019-02-14T11:28:15.168Z,17.50
2019-02-14T11:29:15.095Z,15.00
2019-02-14T11:30:15.005Z,20.10
2019-02-14T11:31:14.934Z,16.20
2019-02-14T11:32:14.843Z,16.90
2019-02-14T11:33:14.776Z,17.70
2019-02-14T11:34:14.694Z,17.70
2019-02-14T11:35:14.606Z,19.30
2019-02-14T11:36:14.547Z,15.90
2019-02-14T11:37:14.456Z,16.00
2019-02-14T11:38:14.371Z,17.00
2019-02-14T11:39:14.295Z,18.40
2019-02-14T11:40:14.208Z,17.10
2019-02-14T11:41:14.135Z,16.40
2019-02-14T11:42:14.057Z,19.20
2019-02-14T11:43:13.970Z,16.30
2019-02-14T11:44:13.899Z,16.20
2019-02-14T11:45:13.822Z,17.60
2019-02-14T11:46:13.733Z,15.70
2019-02-14T11:47:13.658Z,16.70
2019-02-14T11:48:13.570Z,16.50
2019-02-14T11:49:13.496Z,19.60
2019-02-14T11:50:13.424Z,16.30
2019-02-14T11:51:13.333Z,16.40
2019-02-14T11:52:13.272Z,18.90
2019-02-14T11:53:14.291Z,15.80
2019-02-14T11:54:13.097Z,16.30
2019-02-14T11:55:13.021Z,17.30
2019-02-14T11:56:12.947Z,16.80
2019-02-14T11:57:12.859Z,15.40
2019-02-14T11:58:12.783Z,18.30
2019-02-14T11:59:12.708Z,15.60
2019-02-14T12:00:12.633Z,18.50
2019-02-14T12:01:12.554Z,18.40
2019-02-14T12:02:12.471Z,16.80
2019-02-14T12:03:12.399Z,18.50
2019-02-14T12:04:12.322Z,17.00
2019-02-14T12:05:12.234Z,19.10
2019-02-14T12:06:17.311Z,17.80
2019-02-14T12:07:12.084Z,19.90
2019-02-14T12:08:12.011Z,18.30
2019-02-14T12:09:11.923Z,20.70
2019-02-14T12:10:13.768Z,22.70
2019-02-14T12:11:11.773Z,19.30
2019-02-14T12:12:11.698Z,17.40
2019-02-14T12:13:11.610Z,19.00
2019-02-14T12:14:11.536Z,20.70
2019-02-14T12:15:11.465Z,19.50
2019-02-14T12:16:11.385Z,19.30
2019-02-14T12:17:11.311Z,16.90
2019-02-14T12:18:11.224Z,19.30
2019-02-14T12:19:11.149Z,19.70
2019-02-14T12:20:12.647Z,20.20
2019-02-14T12:21:11.000Z,18.50
2019-02-14T12:22:10.924Z,20.20
2019-02-14T12:23:10.836Z,17.00
2019-02-14T12:24:10.790Z,19.00
2019-02-14T12:25:10.686Z,20.80
2019-02-14T12:26:10.624Z,19.70
2019-02-14T12:27:10.525Z,18.00
2019-02-14T12:28:10.460Z,21.10
2019-02-14T12:29:10.374Z,22.10
2019-02-14T12:30:10.300Z,20.40
2019-02-14T12:31:10.227Z,18.40
2019-02-14T12:32:10.138Z,18.50
2019-02-14T12:33:10.063Z,18.70
2019-02-14T12:34:09.987Z,19.40
2019-02-14T12:35:09.912Z,18.00
2019-02-14T12:36:09.841Z,18.50
2019-02-14T12:37:09.751Z,18.20
2019-02-14T12:38:09.676Z,17.10
2019-02-14T12:39:11.555Z,18.30
2019-02-14T12:40:09.513Z,19.40
2019-02-14T12:41:09.450Z,21.30
2019-02-14T12:42:09.363Z,17.70
2019-02-14T12:43:09.290Z,17.50
2019-02-14T12:44:09.213Z,20.10
2019-02-14T12:45:09.126Z,17.50
2019-02-14T12:46:09.054Z,16.20
2019-02-14T12:47:08.991Z,17.80
2019-02-14T12:48:08.902Z,18.20
2019-02-14T12:49:08.820Z,20.60
2019-02-14T12:50:08.739Z,19.00
2019-02-14T12:51:08.672Z,18.70